sensor_id;sensor_type;location;lat;lon;timestamp;pressure;altitude;pressure_sealevel;temperature;humidity
62458;BME280;48509;52.122;5.250;2023-07-31T00:00:20;100891.0;;;17.61;100.0
62458;BME280;48509;52.122;5.250;2023-07-31T00:01:57;100889.0;;;17.62;100.0
62458;BME280;48509;52.122;5.250;2023-07-31T00:05:10;100880.0;;;17.5;100.0
62458;BME280;48509;52.122;5.250;2023-07-31T00:06:47;100878.0;;;17.5;100.0
62458;BME280;48509;52.122;5.250;2023-07-31T00:08:24;100870.0;;;17.63;100.0
62458;BME280;48509;52.122;5.250;2023-07-31T00:11:38;100872.0;;;17.66;100.0
62458;BME280;48509;52.122;5.250;2023-07-31T00:13:15;100869.0;;;17.79;100.0
62458;BME280;48509;52.122;5.250;2023-07-31T00:14:51;100870.0;;;17.77;100.0
62458;BME280;48509;52.122;5.250;2023-07-31T00:16:28;100865.0;;;17.77;100.0
62458;BME280;48509;52.122;5.250;2023-07-31T00:19:42;100864.0;;;17.66;100.0
62458;BME280;48509;52.122;5.250;2023-07-31T00:21:20;100860.0;;;17.64;100.0
62458;BME280;48509;52.122;5.250;2023-07-31T00:22:57;100859.0;;;17.78;100.0
62458;BME280;48509;52.122;5.250;2023-07-31T00:26:10;100864.0;;;17.82;100.0
62458;BME280;48509;52.122;5.250;2023-07-31T00:27:47;100868.0;;;17.8;100.0
62458;BME280;48509;52.122;5.250;2023-07-31T00:29:23;100865.0;;;17.75;100.0
62458;BME280;48509;52.122;5.250;2023-07-31T00:31:01;100864.0;;;17.89;100.0
62458;BME280;48509;52.122;5.250;2023-07-31T00:34:14;100857.0;;;18.02;100.0
62458;BME280;48509;52.122;5.250;2023-07-31T00:35:51;100861.0;;;18.05;100.0
62458;BME280;48509;52.122;5.250;2023-07-31T00:37:28;100855.0;;;18.18;100.0
62458;BME280;48509;52.122;5.250;2023-07-31T00:40:41;100852.0;;;18.18;100.0
62458;BME280;48509;52.122;5.250;2023-07-31T00:42:18;100852.0;;;18.16;100.0
62458;BME280;48509;52.122;5.250;2023-07-31T00:43:54;100861.0;;;18.3;100.0
62458;BME280;48509;52.122;5.250;2023-07-31T00:47:08;100862.0;;;18.28;100.0
62458;BME280;48509;52.122;5.250;2023-07-31T00:48:45;100860.0;;;18.34;100.0
62458;BME280;48509;52.122;5.250;2023-07-31T00:50:24;100861.0;;;18.43;100.0
62458;BME280;48509;52.122;5.250;2023-07-31T00:52:01;100855.0;;;18.48;100.0
62458;BME280;48509;52.122;5.250;2023-07-31T00:55:14;100849.0;;;18.5;100.0
62458;BME280;48509;52.122;5.250;2023-07-31T00:56:53;100857.0;;;18.43;100.0
62458;BME280;48509;52.122;5.250;2023-07-31T00:58:30;100850.0;;;18.5;100.0
62458;BME280;48509;52.122;5.250;2023-07-31T01:01:46;100848.0;;;18.64;100.0
62458;BME280;48509;52.122;5.250;2023-07-31T01:03:23;100848.0;;;18.61;100.0
62458;BME280;48509;52.122;5.250;2023-07-31T01:05:00;100862.0;;;18.64;100.0
62458;BME280;48509;52.122;5.250;2023-07-31T01:06:42;100863.0;;;18.61;100.0
62458;BME280;48509;52.122;5.250;2023-07-31T01:10:27;100857.0;;;18.59;100.0
62458;BME280;48509;52.122;5.250;2023-07-31T01:12:13;100851.0;;;18.52;100.0
62458;BME280;48509;52.122;5.250;2023-07-31T01:13:50;100853.0;;;18.29;100.0
62458;BME280;48509;52.122;5.250;2023-07-31T01:15:27;100856.0;;;18.2;100.0
62458;BME280;48509;52.122;5.250;2023-07-31T01:17:04;100857.0;;;18.25;100.0
62458;BME280;48509;52.122;5.250;2023-07-31T01:20:21;100850.0;;;18.25;100.0
62458;BME280;48509;52.122;5.250;2023-07-31T01:22:23;100850.0;;;18.28;100.0
62458;BME280;48509;52.122;5.250;2023-07-31T01:24:20;100839.0;;;18.31;100.0
62458;BME280;48509;52.122;5.250;2023-07-31T01:26:25;100844.0;;;18.31;100.0
62458;BME280;48509;52.122;5.250;2023-07-31T01:28:07;100845.0;;;18.37;100.0
62458;BME280;48509;52.122;5.250;2023-07-31T01:29:54;100846.0;;;18.41;100.0
62458;BME280;48509;52.122;5.250;2023-07-31T01:33:15;100844.0;;;18.46;100.0
62458;BME280;48509;52.122;5.250;2023-07-31T01:34:53;100841.0;;;18.48;100.0
62458;BME280;48509;52.122;5.250;2023-07-31T01:36:31;100844.0;;;18.45;100.0
62458;BME280;48509;52.122;5.250;2023-07-31T01:38:08;100848.0;;;18.39;100.0
62458;BME280;48509;52.122;5.250;2023-07-31T01:41:21;100845.0;;;18.41;100.0
62458;BME280;48509;52.122;5.250;2023-07-31T01:42:57;100843.0;;;18.5;100.0
62458;BME280;48509;52.122;5.250;2023-07-31T01:44:35;100850.0;;;18.46;100.0
62458;BME280;48509;52.122;5.250;2023-07-31T01:47:48;100845.0;;;18.5;100.0
62458;BME280;48509;52.122;5.250;2023-07-31T01:49:25;100842.0;;;18.37;100.0
62458;BME280;48509;52.122;5.250;2023-07-31T01:51:01;100838.0;;;18.38;100.0
62458;BME280;48509;52.122;5.250;2023-07-31T01:52:38;100840.0;;;18.38;100.0
62458;BME280;48509;52.122;5.250;2023-07-31T01:55:52;100843.0;;;18.34;100.0
62458;BME280;48509;52.122;5.250;2023-07-31T01:57:28;100836.0;;;18.45;100.0
62458;BME280;48509;52.122;5.250;2023-07-31T01:59:04;100835.0;;;18.21;100.0
62458;BME280;48509;52.122;5.250;2023-07-31T02:02:18;100826.0;;;18.34;100.0
62458;BME280;48509;52.122;5.250;2023-07-31T02:03:55;100830.0;;;18.39;100.0
62458;BME280;48509;52.122;5.250;2023-07-31T02:05:32;100825.0;;;18.38;100.0
62458;BME280;48509;52.122;5.250;2023-07-31T02:08:45;100818.0;;;18.27;100.0
62458;BME280;48509;52.122;5.250;2023-07-31T02:10:23;100821.0;;;18.25;100.0
62458;BME280;48509;52.122;5.250;2023-07-31T02:12:01;100808.0;;;18.16;100.0
62458;BME280;48509;52.122;5.250;2023-07-31T02:13:37;100818.0;;;18.25;100.0
62458;BME280;48509;52.122;5.250;2023-07-31T02:16:50;100797.0;;;18.2;100.0
62458;BME280;48509;52.122;5.250;2023-07-31T02:18:26;100795.0;;;18.21;100.0
62458;BME280;48509;52.122;5.250;2023-07-31T02:20:04;100789.0;;;18.2;100.0
62458;BME280;48509;52.122;5.250;2023-07-31T02:23:18;100789.0;;;18.14;100.0
62458;BME280;48509;52.122;5.250;2023-07-31T02:24:55;100790.0;;;18.12;100.0
62458;BME280;48509;52.122;5.250;2023-07-31T02:26:31;100784.0;;;18.16;100.0
62458;BME280;48509;52.122;5.250;2023-07-31T02:28:08;100789.0;;;18.22;100.0
62458;BME280;48509;52.122;5.250;2023-07-31T02:31:21;100789.0;;;18.3;100.0
62458;BME280;48509;52.122;5.250;2023-07-31T02:32:58;100784.0;;;18.28;100.0
62458;BME280;48509;52.122;5.250;2023-07-31T02:34:35;100784.0;;;18.25;100.0
62458;BME280;48509;52.122;5.250;2023-07-31T02:37:49;100786.0;;;18.28;100.0
62458;BME280;48509;52.122;5.250;2023-07-31T02:39:26;100790.0;;;18.3;100.0
62458;BME280;48509;52.122;5.250;2023-07-31T02:41:03;100787.0;;;18.38;100.0
62458;BME280;48509;52.122;5.250;2023-07-31T02:44:16;100790.0;;;18.41;100.0
62458;BME280;48509;52.122;5.250;2023-07-31T02:45:53;100784.0;;;18.43;100.0
62458;BME280;48509;52.122;5.250;2023-07-31T02:47:29;100785.0;;;18.46;100.0
62458;BME280;48509;52.122;5.250;2023-07-31T02:49:06;100784.0;;;18.36;100.0
62458;BME280;48509;52.122;5.250;2023-07-31T02:52:18;100776.0;;;18.21;100.0
62458;BME280;48509;52.122;5.250;2023-07-31T02:53:55;100774.0;;;18.27;100.0
62458;BME280;48509;52.122;5.250;2023-07-31T02:55:31;100770.0;;;18.18;100.0
62458;BME280;48509;52.122;5.250;2023-07-31T02:58:45;100765.0;;;18.29;100.0
62458;BME280;48509;52.122;5.250;2023-07-31T03:00:21;100766.0;;;18.3;100.0
62458;BME280;48509;52.122;5.250;2023-07-31T03:05:12;100773.0;;;18.22;100.0
62458;BME280;48509;52.122;5.250;2023-07-31T03:06:49;100768.0;;;18.31;100.0
62458;BME280;48509;52.122;5.250;2023-07-31T03:08:26;100769.0;;;18.39;100.0
62458;BME280;48509;52.122;5.250;2023-07-31T03:10:03;100765.0;;;18.45;100.0
62458;BME280;48509;52.122;5.250;2023-07-31T03:13:17;100771.0;;;18.36;100.0
62458;BME280;48509;52.122;5.250;2023-07-31T03:14:54;100764.0;;;18.41;100.0
62458;BME280;48509;52.122;5.250;2023-07-31T03:16:31;100770.0;;;18.47;100.0
62458;BME280;48509;52.122;5.250;2023-07-31T03:19:45;100766.0;;;18.45;100.0
62458;BME280;48509;52.122;5.250;2023-07-31T03:21:21;100765.0;;;18.34;100.0
62458;BME280;48509;52.122;5.250;2023-07-31T03:22:58;100764.0;;;18.34;100.0
62458;BME280;48509;52.122;5.250;2023-07-31T03:24:34;100768.0;;;18.36;100.0
62458;BME280;48509;52.122;5.250;2023-07-31T03:27:48;100770.0;;;18.28;100.0
62458;BME280;48509;52.122;5.250;2023-07-31T03:29:26;100772.0;;;18.31;100.0
62458;BME280;48509;52.122;5.250;2023-07-31T03:31:02;100771.0;;;18.27;100.0
62458;BME280;48509;52.122;5.250;2023-07-31T03:34:15;100769.0;;;18.27;100.0
62458;BME280;48509;52.122;5.250;2023-07-31T03:35:52;100771.0;;;18.25;100.0
62458;BME280;48509;52.122;5.250;2023-07-31T03:37:29;100764.0;;;18.41;100.0
62458;BME280;48509;52.122;5.250;2023-07-31T03:40:42;100760.0;;;18.39;100.0
62458;BME280;48509;52.122;5.250;2023-07-31T03:42:19;100765.0;;;18.3;100.0
62458;BME280;48509;52.122;5.250;2023-07-31T03:43:56;100760.0;;;18.25;100.0
62458;BME280;48509;52.122;5.250;2023-07-31T03:45:33;100760.0;;;18.12;100.0
62458;BME280;48509;52.122;5.250;2023-07-31T03:48:47;100760.0;;;18.12;100.0
62458;BME280;48509;52.122;5.250;2023-07-31T03:50:24;100756.0;;;18.25;100.0
62458;BME280;48509;52.122;5.250;2023-07-31T03:52:00;100759.0;;;18.29;100.0
62458;BME280;48509;52.122;5.250;2023-07-31T03:55:15;100757.0;;;18.3;100.0
62458;BME280;48509;52.122;5.250;2023-07-31T03:56:51;100753.0;;;18.3;100.0
62458;BME280;48509;52.122;5.250;2023-07-31T03:58:27;100749.0;;;18.2;100.0
62458;BME280;48509;52.122;5.250;2023-07-31T04:01:43;100752.0;;;18.23;100.0
62458;BME280;48509;52.122;5.250;2023-07-31T04:03:19;100743.0;;;18.36;100.0
62458;BME280;48509;52.122;5.250;2023-07-31T04:04:56;100738.0;;;18.11;100.0
62458;BME280;48509;52.122;5.250;2023-07-31T04:06:32;100738.0;;;18.16;100.0
62458;BME280;48509;52.122;5.250;2023-07-31T04:09:47;100737.0;;;18.12;100.0
62458;BME280;48509;52.122;5.250;2023-07-31T04:11:23;100735.0;;;18.25;100.0
62458;BME280;48509;52.122;5.250;2023-07-31T04:13:00;100732.0;;;18.41;100.0
62458;BME280;48509;52.122;5.250;2023-07-31T04:16:13;100730.0;;;18.32;100.0
62458;BME280;48509;52.122;5.250;2023-07-31T04:17:50;100723.0;;;18.2;100.0
62458;BME280;48509;52.122;5.250;2023-07-31T04:19:26;100720.0;;;18.11;100.0
62458;BME280;48509;52.122;5.250;2023-07-31T04:22:40;100713.0;;;18.03;100.0
62458;BME280;48509;52.122;5.250;2023-07-31T04:24:17;100722.0;;;18.09;100.0
62458;BME280;48509;52.122;5.250;2023-07-31T04:25:54;100713.0;;;18.16;100.0
62458;BME280;48509;52.122;5.250;2023-07-31T04:27:31;100711.0;;;18.18;100.0
62458;BME280;48509;52.122;5.250;2023-07-31T04:30:45;100710.0;;;18.21;100.0
62458;BME280;48509;52.122;5.250;2023-07-31T04:32:23;100709.0;;;18.11;100.0
62458;BME280;48509;52.122;5.250;2023-07-31T04:33:59;100716.0;;;18.13;100.0
62458;BME280;48509;52.122;5.250;2023-07-31T04:37:12;100717.0;;;18.09;100.0
62458;BME280;48509;52.122;5.250;2023-07-31T04:38:50;100722.0;;;18.18;100.0
62458;BME280;48509;52.122;5.250;2023-07-31T04:40:27;100722.0;;;18.07;100.0
62458;BME280;48509;52.122;5.250;2023-07-31T04:42:04;100721.0;;;18.02;100.0
62458;BME280;48509;52.122;5.250;2023-07-31T04:45:17;100726.0;;;17.97;100.0
62458;BME280;48509;52.122;5.250;2023-07-31T04:46:54;100725.0;;;18.0;100.0
62458;BME280;48509;52.122;5.250;2023-07-31T04:48:31;100721.0;;;18.02;100.0
62458;BME280;48509;52.122;5.250;2023-07-31T04:51:45;100716.0;;;17.98;100.0
62458;BME280;48509;52.122;5.250;2023-07-31T04:53:21;100717.0;;;17.98;100.0
62458;BME280;48509;52.122;5.250;2023-07-31T04:54:58;100713.0;;;18.09;100.0
62458;BME280;48509;52.122;5.250;2023-07-31T04:58:12;100702.0;;;18.11;100.0
62458;BME280;48509;52.122;5.250;2023-07-31T04:59:49;100701.0;;;17.98;100.0
62458;BME280;48509;52.122;5.250;2023-07-31T05:01:25;100698.0;;;17.97;100.0
62458;BME280;48509;52.122;5.250;2023-07-31T05:03:01;100690.0;;;17.88;100.0
62458;BME280;48509;52.122;5.250;2023-07-31T05:06:16;100693.0;;;17.88;100.0
62458;BME280;48509;52.122;5.250;2023-07-31T05:07:53;100692.0;;;17.86;100.0
62458;BME280;48509;52.122;5.250;2023-07-31T05:09:30;100687.0;;;17.86;100.0
62458;BME280;48509;52.122;5.250;2023-07-31T05:12:44;100692.0;;;17.8;100.0
62458;BME280;48509;52.122;5.250;2023-07-31T05:14:21;100687.0;;;17.77;100.0
62458;BME280;48509;52.122;5.250;2023-07-31T05:15:58;100691.0;;;17.89;100.0
62458;BME280;48509;52.122;5.250;2023-07-31T05:17:34;100690.0;;;17.81;100.0
62458;BME280;48509;52.122;5.250;2023-07-31T05:20:49;100689.0;;;17.72;100.0
62458;BME280;48509;52.122;5.250;2023-07-31T05:22:26;100690.0;;;17.81;100.0
62458;BME280;48509;52.122;5.250;2023-07-31T05:24:03;100681.0;;;17.75;100.0
62458;BME280;48509;52.122;5.250;2023-07-31T05:27:18;100680.0;;;17.7;100.0
62458;BME280;48509;52.122;5.250;2023-07-31T05:28:56;100686.0;;;17.7;100.0
62458;BME280;48509;52.122;5.250;2023-07-31T05:30:32;100680.0;;;17.7;100.0
62458;BME280;48509;52.122;5.250;2023-07-31T05:33:45;100667.0;;;17.66;100.0
62458;BME280;48509;52.122;5.250;2023-07-31T05:35:21;100666.0;;;17.77;100.0
62458;BME280;48509;52.122;5.250;2023-07-31T05:36:57;100665.0;;;17.78;100.0
62458;BME280;48509;52.122;5.250;2023-07-31T05:38:34;100661.0;;;17.89;100.0
62458;BME280;48509;52.122;5.250;2023-07-31T05:41:49;100656.0;;;17.78;100.0
62458;BME280;48509;52.122;5.250;2023-07-31T05:43:26;100655.0;;;17.86;100.0
62458;BME280;48509;52.122;5.250;2023-07-31T05:45:04;100651.0;;;17.72;100.0
62458;BME280;48509;52.122;5.250;2023-07-31T05:48:18;100661.0;;;17.72;100.0
62458;BME280;48509;52.122;5.250;2023-07-31T05:49:55;100645.0;;;17.86;100.0
62458;BME280;48509;52.122;5.250;2023-07-31T05:51:32;100647.0;;;17.77;100.0
62458;BME280;48509;52.122;5.250;2023-07-31T05:53:08;100646.0;;;17.78;100.0
62458;BME280;48509;52.122;5.250;2023-07-31T05:56:22;100646.0;;;17.8;100.0
62458;BME280;48509;52.122;5.250;2023-07-31T05:57:59;100645.0;;;17.81;100.0
62458;BME280;48509;52.122;5.250;2023-07-31T05:59:37;100638.0;;;17.7;100.0
62458;BME280;48509;52.122;5.250;2023-07-31T06:02:49;100636.0;;;17.8;100.0
62458;BME280;48509;52.122;5.250;2023-07-31T06:04:26;100633.0;;;17.75;100.0
62458;BME280;48509;52.122;5.250;2023-07-31T06:06:02;100631.0;;;17.73;100.0
62458;BME280;48509;52.122;5.250;2023-07-31T06:09:17;100639.0;;;17.8;100.0
62458;BME280;48509;52.122;5.250;2023-07-31T06:10:53;100637.0;;;17.82;100.0
62458;BME280;48509;52.122;5.250;2023-07-31T06:12:29;100630.0;;;17.97;100.0
62458;BME280;48509;52.122;5.250;2023-07-31T06:14:06;100627.0;;;17.98;100.0
62458;BME280;48509;52.122;5.250;2023-07-31T06:17:20;100621.0;;;17.87;100.0
62458;BME280;48509;52.122;5.250;2023-07-31T06:18:57;100622.0;;;17.88;100.0
62458;BME280;48509;52.122;5.250;2023-07-31T06:20:34;100617.0;;;17.84;100.0
62458;BME280;48509;52.122;5.250;2023-07-31T06:23:47;100621.0;;;17.95;100.0
62458;BME280;48509;52.122;5.250;2023-07-31T06:25:24;100617.0;;;17.95;100.0
62458;BME280;48509;52.122;5.250;2023-07-31T06:27:01;100618.0;;;18.02;100.0
62458;BME280;48509;52.122;5.250;2023-07-31T06:30:15;100621.0;;;18.07;100.0
62458;BME280;48509;52.122;5.250;2023-07-31T06:31:52;100615.0;;;18.04;100.0
62458;BME280;48509;52.122;5.250;2023-07-31T06:33:29;100620.0;;;18.03;100.0
62458;BME280;48509;52.122;5.250;2023-07-31T06:35:07;100610.0;;;17.8;100.0
62458;BME280;48509;52.122;5.250;2023-07-31T06:38:22;100605.0;;;17.79;100.0
62458;BME280;48509;52.122;5.250;2023-07-31T06:40:01;100602.0;;;17.96;100.0
62458;BME280;48509;52.122;5.250;2023-07-31T06:41:38;100600.0;;;17.97;100.0
62458;BME280;48509;52.122;5.250;2023-07-31T06:44:52;100597.0;;;17.96;100.0
62458;BME280;48509;52.122;5.250;2023-07-31T06:46:29;100595.0;;;17.93;100.0
62458;BME280;48509;52.122;5.250;2023-07-31T06:48:05;100592.0;;;18.05;100.0
62458;BME280;48509;52.122;5.250;2023-07-31T06:49:43;100589.0;;;18.03;100.0
62458;BME280;48509;52.122;5.250;2023-07-31T06:52:55;100596.0;;;18.05;100.0
62458;BME280;48509;52.122;5.250;2023-07-31T06:54:32;100589.0;;;18.04;100.0
62458;BME280;48509;52.122;5.250;2023-07-31T06:56:08;100588.0;;;18.18;100.0
62458;BME280;48509;52.122;5.250;2023-07-31T06:59:23;100583.0;;;18.09;100.0
62458;BME280;48509;52.122;5.250;2023-07-31T07:01:00;100583.0;;;18.13;100.0
62458;BME280;48509;52.122;5.250;2023-07-31T07:02:37;100584.0;;;18.18;100.0
62458;BME280;48509;52.122;5.250;2023-07-31T07:04:14;100585.0;;;18.12;100.0
62458;BME280;48509;52.122;5.250;2023-07-31T07:07:28;100574.0;;;18.25;100.0
62458;BME280;48509;52.122;5.250;2023-07-31T07:09:05;100578.0;;;18.27;100.0
62458;BME280;48509;52.122;5.250;2023-07-31T07:10:42;100577.0;;;18.3;100.0
62458;BME280;48509;52.122;5.250;2023-07-31T07:13:55;100577.0;;;18.34;100.0
62458;BME280;48509;52.122;5.250;2023-07-31T07:15:33;100580.0;;;18.41;100.0
62458;BME280;48509;52.122;5.250;2023-07-31T07:17:09;100576.0;;;18.43;100.0
62458;BME280;48509;52.122;5.250;2023-07-31T07:20:23;100577.0;;;18.48;100.0
62458;BME280;48509;52.122;5.250;2023-07-31T07:22:01;100580.0;;;18.53;100.0
62458;BME280;48509;52.122;5.250;2023-07-31T07:23:38;100583.0;;;18.55;100.0
62458;BME280;48509;52.122;5.250;2023-07-31T07:25:14;100578.0;;;18.52;100.0
62458;BME280;48509;52.122;5.250;2023-07-31T07:28:28;100583.0;;;18.46;100.0
62458;BME280;48509;52.122;5.250;2023-07-31T07:30:06;100582.0;;;18.36;100.0
62458;BME280;48509;52.122;5.250;2023-07-31T07:31:43;100582.0;;;18.31;100.0
62458;BME280;48509;52.122;5.250;2023-07-31T07:34:57;100572.0;;;18.34;100.0
62458;BME280;48509;52.122;5.250;2023-07-31T07:36:33;100576.0;;;18.41;100.0
62458;BME280;48509;52.122;5.250;2023-07-31T07:38:13;100574.0;;;18.39;100.0
62458;BME280;48509;52.122;5.250;2023-07-31T07:39:49;100573.0;;;18.46;100.0
62458;BME280;48509;52.122;5.250;2023-07-31T07:43:03;100574.0;;;18.47;100.0
62458;BME280;48509;52.122;5.250;2023-07-31T07:44:39;100570.0;;;18.28;100.0
62458;BME280;48509;52.122;5.250;2023-07-31T07:46:16;100570.0;;;18.41;100.0
62458;BME280;48509;52.122;5.250;2023-07-31T07:49:30;100567.0;;;18.38;100.0
62458;BME280;48509;52.122;5.250;2023-07-31T07:51:08;100568.0;;;18.45;100.0
62458;BME280;48509;52.122;5.250;2023-07-31T07:52:45;100565.0;;;18.61;100.0
62458;BME280;48509;52.122;5.250;2023-07-31T07:55:59;100575.0;;;18.57;100.0
62458;BME280;48509;52.122;5.250;2023-07-31T07:57:36;100567.0;;;18.61;100.0
62458;BME280;48509;52.122;5.250;2023-07-31T07:59:12;100565.0;;;18.59;100.0
62458;BME280;48509;52.122;5.250;2023-07-31T08:04:03;100563.0;;;18.59;100.0
62458;BME280;48509;52.122;5.250;2023-07-31T08:05:40;100561.0;;;18.59;100.0
62458;BME280;48509;52.122;5.250;2023-07-31T08:07:16;100562.0;;;18.52;100.0
62458;BME280;48509;52.122;5.250;2023-07-31T08:10:31;100557.0;;;18.59;100.0
62458;BME280;48509;52.122;5.250;2023-07-31T08:12:08;100551.0;;;18.72;100.0
62458;BME280;48509;52.122;5.250;2023-07-31T08:13:46;100555.0;;;18.64;100.0
62458;BME280;48509;52.122;5.250;2023-07-31T08:17:00;100555.0;;;18.55;100.0
62458;BME280;48509;52.122;5.250;2023-07-31T08:18:37;100548.0;;;18.59;100.0
62458;BME280;48509;52.122;5.250;2023-07-31T08:20:15;100552.0;;;18.59;100.0
62458;BME280;48509;52.122;5.250;2023-07-31T08:21:52;100546.0;;;18.55;100.0
62458;BME280;48509;52.122;5.250;2023-07-31T08:25:06;100539.0;;;18.66;100.0
62458;BME280;48509;52.122;5.250;2023-07-31T08:26:43;100541.0;;;18.81;100.0
62458;BME280;48509;52.122;5.250;2023-07-31T08:28:20;100540.0;;;18.77;100.0
62458;BME280;48509;52.122;5.250;2023-07-31T08:31:35;100530.0;;;18.87;100.0
62458;BME280;48509;52.122;5.250;2023-07-31T08:33:12;100532.0;;;18.91;100.0
62458;BME280;48509;52.122;5.250;2023-07-31T08:34:48;100533.0;;;19.03;100.0
62458;BME280;48509;52.122;5.250;2023-07-31T08:36:25;100534.0;;;19.16;100.0
62458;BME280;48509;52.122;5.250;2023-07-31T08:39:39;100532.0;;;19.11;100.0
62458;BME280;48509;52.122;5.250;2023-07-31T08:42:55;100540.0;;;19.11;100.0
62458;BME280;48509;52.122;5.250;2023-07-31T08:46:10;100536.0;;;19.25;100.0
62458;BME280;48509;52.122;5.250;2023-07-31T08:47:50;100535.0;;;19.07;100.0
62458;BME280;48509;52.122;5.250;2023-07-31T08:49:27;100530.0;;;19.07;100.0
62458;BME280;48509;52.122;5.250;2023-07-31T08:51:06;100533.0;;;19.11;100.0
62458;BME280;48509;52.122;5.250;2023-07-31T08:54:23;100534.0;;;19.05;100.0
62458;BME280;48509;52.122;5.250;2023-07-31T08:56:01;100530.0;;;19.07;100.0
62458;BME280;48509;52.122;5.250;2023-07-31T08:57:39;100526.0;;;19.16;100.0
62458;BME280;48509;52.122;5.250;2023-07-31T08:59:19;100537.0;;;19.18;100.0
62458;BME280;48509;52.122;5.250;2023-07-31T09:02:44;100531.0;;;19.11;100.0
62458;BME280;48509;52.122;5.250;2023-07-31T09:04:28;100531.0;;;19.09;100.0
62458;BME280;48509;52.122;5.250;2023-07-31T09:06:06;100541.0;;;19.16;100.0
62458;BME280;48509;52.122;5.250;2023-07-31T09:07:44;100532.0;;;19.22;100.0
62458;BME280;48509;52.122;5.250;2023-07-31T09:11:00;100539.0;;;19.16;100.0
62458;BME280;48509;52.122;5.250;2023-07-31T09:12:37;100545.0;;;19.25;100.0
62458;BME280;48509;52.122;5.250;2023-07-31T09:14:16;100544.0;;;19.18;100.0
62458;BME280;48509;52.122;5.250;2023-07-31T09:17:33;100547.0;;;19.23;100.0
62458;BME280;48509;52.122;5.250;2023-07-31T09:19:10;100541.0;;;19.21;100.0
62458;BME280;48509;52.122;5.250;2023-07-31T09:21:00;100533.0;;;19.3;100.0
62458;BME280;48509;52.122;5.250;2023-07-31T09:22:36;100528.0;;;19.43;100.0
62458;BME280;48509;52.122;5.250;2023-07-31T09:26:01;100530.0;;;19.52;100.0
62458;BME280;48509;52.122;5.250;2023-07-31T09:27:46;100527.0;;;19.53;100.0
62458;BME280;48509;52.122;5.250;2023-07-31T09:29:23;100526.0;;;19.54;100.0
62458;BME280;48509;52.122;5.250;2023-07-31T09:31:01;100522.0;;;19.52;100.0
62458;BME280;48509;52.122;5.250;2023-07-31T09:34:14;100522.0;;;19.47;100.0
62458;BME280;48509;52.122;5.250;2023-07-31T09:35:52;100518.0;;;19.52;100.0
62458;BME280;48509;52.122;5.250;2023-07-31T09:37:29;100518.0;;;19.66;100.0
62458;BME280;48509;52.122;5.250;2023-07-31T09:39:08;100516.0;;;19.54;100.0
62458;BME280;48509;52.122;5.250;2023-07-31T09:42:25;100522.0;;;19.64;100.0
62458;BME280;48509;52.122;5.250;2023-07-31T09:44:03;100522.0;;;19.68;100.0
62458;BME280;48509;52.122;5.250;2023-07-31T09:45:41;100519.0;;;19.81;100.0
62458;BME280;48509;52.122;5.250;2023-07-31T09:49:10;100523.0;;;19.77;100.0
62458;BME280;48509;52.122;5.250;2023-07-31T09:50:48;100524.0;;;19.81;100.0
62458;BME280;48509;52.122;5.250;2023-07-31T09:52:26;100523.0;;;19.84;100.0
62458;BME280;48509;52.122;5.250;2023-07-31T09:54:02;100521.0;;;19.84;100.0
62458;BME280;48509;52.122;5.250;2023-07-31T09:57:21;100516.0;;;19.68;100.0
62458;BME280;48509;52.122;5.250;2023-07-31T09:58:58;100516.0;;;19.7;100.0
62458;BME280;48509;52.122;5.250;2023-07-31T10:00:36;100515.0;;;19.72;100.0
62458;BME280;48509;52.122;5.250;2023-07-31T10:02:16;100520.0;;;19.82;100.0
62458;BME280;48509;52.122;5.250;2023-07-31T10:05:36;100517.0;;;19.86;100.0
62458;BME280;48509;52.122;5.250;2023-07-31T10:07:17;100513.0;;;19.8;100.0
62458;BME280;48509;52.122;5.250;2023-07-31T10:08:54;100520.0;;;19.77;100.0
62458;BME280;48509;52.122;5.250;2023-07-31T10:10:32;100522.0;;;19.89;100.0
62458;BME280;48509;52.122;5.250;2023-07-31T10:13:54;100521.0;;;19.84;100.0
62458;BME280;48509;52.122;5.250;2023-07-31T10:15:32;100522.0;;;19.84;100.0
62458;BME280;48509;52.122;5.250;2023-07-31T10:17:10;100513.0;;;19.87;100.0
62458;BME280;48509;52.122;5.250;2023-07-31T10:18:49;100523.0;;;19.95;100.0
62458;BME280;48509;52.122;5.250;2023-07-31T10:22:05;100527.0;;;19.95;100.0
62458;BME280;48509;52.122;5.250;2023-07-31T10:23:44;100520.0;;;20.02;100.0
62458;BME280;48509;52.122;5.250;2023-07-31T10:25:21;100526.0;;;19.8;100.0
62458;BME280;48509;52.122;5.250;2023-07-31T10:28:38;100523.0;;;19.84;100.0
62458;BME280;48509;52.122;5.250;2023-07-31T10:30:17;100526.0;;;19.86;100.0
62458;BME280;48509;52.122;5.250;2023-07-31T10:31:56;100522.0;;;19.82;100.0
62458;BME280;48509;52.122;5.250;2023-07-31T10:33:34;100515.0;;;19.66;100.0
62458;BME280;48509;52.122;5.250;2023-07-31T10:36:48;100515.0;;;19.7;100.0
62458;BME280;48509;52.122;5.250;2023-07-31T10:38:25;100515.0;;;19.81;100.0
62458;BME280;48509;52.122;5.250;2023-07-31T10:40:03;100511.0;;;19.68;100.0
62458;BME280;48509;52.122;5.250;2023-07-31T10:43:25;100515.0;;;19.82;100.0
62458;BME280;48509;52.122;5.250;2023-07-31T10:45:03;100510.0;;;19.82;100.0
62458;BME280;48509;52.122;5.250;2023-07-31T10:46:42;100511.0;;;19.78;100.0
62458;BME280;48509;52.122;5.250;2023-07-31T10:48:21;100512.0;;;19.89;100.0
62458;BME280;48509;52.122;5.250;2023-07-31T10:52:10;100518.0;;;19.86;100.0
62458;BME280;48509;52.122;5.250;2023-07-31T10:53:48;100522.0;;;19.86;100.0
62458;BME280;48509;52.122;5.250;2023-07-31T10:55:27;100521.0;;;19.95;100.0
62458;BME280;48509;52.122;5.250;2023-07-31T10:57:19;100521.0;;;20.0;100.0
62458;BME280;48509;52.122;5.250;2023-07-31T10:59:00;100523.0;;;19.95;100.0
62458;BME280;48509;52.122;5.250;2023-07-31T11:02:24;100515.0;;;19.95;100.0
62458;BME280;48509;52.122;5.250;2023-07-31T11:04:10;100519.0;;;19.97;100.0
62458;BME280;48509;52.122;5.250;2023-07-31T11:05:50;100514.0;;;20.03;100.0
62458;BME280;48509;52.122;5.250;2023-07-31T11:07:46;100522.0;;;19.91;100.0
62458;BME280;48509;52.122;5.250;2023-07-31T11:12:44;100530.0;;;19.93;100.0
62458;BME280;48509;52.122;5.250;2023-07-31T11:14:21;100525.0;;;19.84;100.0